sensor_id;sensor_type;location;lat;lon;timestamp;temperature;humidity
30381;DHT22;17169;50.966;11.038;2023-05-16T00:01:49;14.40;98.00
30381;DHT22;17169;50.966;11.038;2023-05-16T00:04:52;14.40;98.10
30381;DHT22;17169;50.966;11.038;2023-05-16T00:07:55;14.40;98.20
30381;DHT22;17169;50.966;11.038;2023-05-16T00:10:58;14.30;98.50
30381;DHT22;17169;50.966;11.038;2023-05-16T00:14:00;14.20;98.60
30381;DHT22;17169;50.966;11.038;2023-05-16T00:17:03;14.10;98.80
30381;DHT22;17169;50.966;11.038;2023-05-16T00:20:11;14.10;98.90
30381;DHT22;17169;50.966;11.038;2023-05-16T00:23:15;14.00;99.20
30381;DHT22;17169;50.966;11.038;2023-05-16T00:26:18;13.90;99.40
30381;DHT22;17169;50.966;11.038;2023-05-16T00:29:20;14.00;99.50
30381;DHT22;17169;50.966;11.038;2023-05-16T00:32:24;13.90;99.60
30381;DHT22;17169;50.966;11.038;2023-05-16T00:35:26;13.80;99.70
30381;DHT22;17169;50.966;11.038;2023-05-16T00:38:30;13.80;99.60
30381;DHT22;17169;50.966;11.038;2023-05-16T00:41:33;13.80;99.80
30381;DHT22;17169;50.966;11.038;2023-05-16T00:44:35;13.80;99.80
30381;DHT22;17169;50.966;11.038;2023-05-16T00:47:38;13.70;99.90
30381;DHT22;17169;50.966;11.038;2023-05-16T00:50:40;13.70;99.90
30381;DHT22;17169;50.966;11.038;2023-05-16T00:53:44;13.60;99.90
30381;DHT22;17169;50.966;11.038;2023-05-16T00:56:46;13.60;99.90
30381;DHT22;17169;50.966;11.038;2023-05-16T00:59:49;13.50;99.90
30381;DHT22;17169;50.966;11.038;2023-05-16T01:02:51;13.50;99.90
30381;DHT22;17169;50.966;11.038;2023-05-16T01:05:54;13.40;99.90
30381;DHT22;17169;50.966;11.038;2023-05-16T01:08:58;13.40;99.90
30381;DHT22;17169;50.966;11.038;2023-05-16T01:12:08;13.40;99.90
30381;DHT22;17169;50.966;11.038;2023-05-16T01:15:18;13.30;99.90
30381;DHT22;17169;50.966;11.038;2023-05-16T01:18:27;13.30;99.90
30381;DHT22;17169;50.966;11.038;2023-05-16T01:21:41;13.20;99.90
30381;DHT22;17169;50.966;11.038;2023-05-16T01:24:57;13.20;99.90
30381;DHT22;17169;50.966;11.038;2023-05-16T01:28:04;13.10;99.90
30381;DHT22;17169;50.966;11.038;2023-05-16T01:31:07;13.00;99.90
30381;DHT22;17169;50.966;11.038;2023-05-16T01:34:09;13.00;99.90
30381;DHT22;17169;50.966;11.038;2023-05-16T01:37:18;12.90;99.90
30381;DHT22;17169;50.966;11.038;2023-05-16T01:40:27;13.00;99.90
30381;DHT22;17169;50.966;11.038;2023-05-16T01:43:43;13.00;99.90
30381;DHT22;17169;50.966;11.038;2023-05-16T01:46:47;12.90;99.90
30381;DHT22;17169;50.966;11.038;2023-05-16T01:49:57;13.00;99.90
30381;DHT22;17169;50.966;11.038;2023-05-16T01:53:06;13.00;99.90
30381;DHT22;17169;50.966;11.038;2023-05-16T01:56:14;13.00;99.90
30381;DHT22;17169;50.966;11.038;2023-05-16T01:59:19;13.10;99.90
30381;DHT22;17169;50.966;11.038;2023-05-16T02:02:22;13.10;99.90
30381;DHT22;17169;50.966;11.038;2023-05-16T02:05:24;13.10;99.90
30381;DHT22;17169;50.966;11.038;2023-05-16T02:08:27;13.20;99.90
30381;DHT22;17169;50.966;11.038;2023-05-16T02:11:30;13.20;99.90
30381;DHT22;17169;50.966;11.038;2023-05-16T02:14:33;13.20;99.90
30381;DHT22;17169;50.966;11.038;2023-05-16T02:17:36;13.20;99.90
30381;DHT22;17169;50.966;11.038;2023-05-16T02:20:38;13.30;99.90
30381;DHT22;17169;50.966;11.038;2023-05-16T02:23:40;13.30;99.90
30381;DHT22;17169;50.966;11.038;2023-05-16T02:26:43;13.30;99.90
30381;DHT22;17169;50.966;11.038;2023-05-16T02:29:47;13.30;99.90
30381;DHT22;17169;50.966;11.038;2023-05-16T02:32:49;13.20;99.90
30381;DHT22;17169;50.966;11.038;2023-05-16T02:35:54;13.20;99.90
30381;DHT22;17169;50.966;11.038;2023-05-16T02:38:56;13.20;99.90
30381;DHT22;17169;50.966;11.038;2023-05-16T02:41:58;13.10;99.90
30381;DHT22;17169;50.966;11.038;2023-05-16T02:45:03;13.00;99.90
30381;DHT22;17169;50.966;11.038;2023-05-16T02:48:05;12.90;99.90
30381;DHT22;17169;50.966;11.038;2023-05-16T02:51:08;12.90;99.90
30381;DHT22;17169;50.966;11.038;2023-05-16T02:54:10;12.80;99.90
30381;DHT22;17169;50.966;11.038;2023-05-16T02:57:12;12.70;99.90
30381;DHT22;17169;50.966;11.038;2023-05-16T03:00:17;12.70;99.90
30381;DHT22;17169;50.966;11.038;2023-05-16T03:03:19;12.60;99.90
30381;DHT22;17169;50.966;11.038;2023-05-16T03:06:22;12.60;99.90
30381;DHT22;17169;50.966;11.038;2023-05-16T03:09:24;12.50;99.90
30381;DHT22;17169;50.966;11.038;2023-05-16T03:12:27;12.40;99.90
30381;DHT22;17169;50.966;11.038;2023-05-16T03:15:30;12.40;99.90
30381;DHT22;17169;50.966;11.038;2023-05-16T03:18:33;12.40;99.90
30381;DHT22;17169;50.966;11.038;2023-05-16T03:21:35;12.40;99.90
30381;DHT22;17169;50.966;11.038;2023-05-16T03:24:37;12.30;99.90
30381;DHT22;17169;50.966;11.038;2023-05-16T03:27:40;12.20;99.90
30381;DHT22;17169;50.966;11.038;2023-05-16T03:30:44;12.10;99.90
30381;DHT22;17169;50.966;11.038;2023-05-16T03:33:46;12.00;99.90
30381;DHT22;17169;50.966;11.038;2023-05-16T03:36:48;11.90;99.90
30381;DHT22;17169;50.966;11.038;2023-05-16T03:39:51;11.90;99.90
30381;DHT22;17169;50.966;11.038;2023-05-16T03:42:53;11.80;99.90
30381;DHT22;17169;50.966;11.038;2023-05-16T03:45:57;11.70;99.90
30381;DHT22;17169;50.966;11.038;2023-05-16T03:48:59;11.60;99.90
30381;DHT22;17169;50.966;11.038;2023-05-16T03:52:02;11.40;99.90
30381;DHT22;17169;50.966;11.038;2023-05-16T03:55:05;11.40;99.90
30381;DHT22;17169;50.966;11.038;2023-05-16T03:58:08;11.40;99.90
30381;DHT22;17169;50.966;11.038;2023-05-16T04:01:12;11.30;99.90
30381;DHT22;17169;50.966;11.038;2023-05-16T04:04:14;11.30;99.90
30381;DHT22;17169;50.966;11.038;2023-05-16T04:07:17;11.40;99.90
30381;DHT22;17169;50.966;11.038;2023-05-16T04:10:19;11.40;99.90
30381;DHT22;17169;50.966;11.038;2023-05-16T04:13:21;11.50;99.90
30381;DHT22;17169;50.966;11.038;2023-05-16T04:16:25;11.50;99.90
30381;DHT22;17169;50.966;11.038;2023-05-16T04:19:27;11.50;99.90
30381;DHT22;17169;50.966;11.038;2023-05-16T04:22:30;11.60;99.90
30381;DHT22;17169;50.966;11.038;2023-05-16T04:25:32;11.50;99.90
30381;DHT22;17169;50.966;11.038;2023-05-16T04:28:34;11.60;99.90
30381;DHT22;17169;50.966;11.038;2023-05-16T04:31:38;11.60;99.90
30381;DHT22;17169;50.966;11.038;2023-05-16T04:34:41;11.70;99.90
30381;DHT22;17169;50.966;11.038;2023-05-16T04:37:44;11.70;99.90
30381;DHT22;17169;50.966;11.038;2023-05-16T04:40:46;11.80;99.90
30381;DHT22;17169;50.966;11.038;2023-05-16T04:43:50;11.80;99.90
30381;DHT22;17169;50.966;11.038;2023-05-16T04:46:55;11.80;99.90
30381;DHT22;17169;50.966;11.038;2023-05-16T04:49:57;11.80;99.90
30381;DHT22;17169;50.966;11.038;2023-05-16T04:52:59;11.80;99.90
30381;DHT22;17169;50.966;11.038;2023-05-16T04:56:02;11.80;99.90
30381;DHT22;17169;50.966;11.038;2023-05-16T04:59:05;11.80;99.90
30381;DHT22;17169;50.966;11.038;2023-05-16T05:02:09;11.90;99.90
30381;DHT22;17169;50.966;11.038;2023-05-16T05:05:11;11.80;99.90
30381;DHT22;17169;50.966;11.038;2023-05-16T05:08:14;11.80;99.90
30381;DHT22;17169;50.966;11.038;2023-05-16T05:11:17;11.80;99.90
30381;DHT22;17169;50.966;11.038;2023-05-16T05:14:19;11.90;99.90
30381;DHT22;17169;50.966;11.038;2023-05-16T05:17:23;12.00;99.90
30381;DHT22;17169;50.966;11.038;2023-05-16T05:20:25;12.00;99.90
30381;DHT22;17169;50.966;11.038;2023-05-16T05:23:28;11.90;99.90
30381;DHT22;17169;50.966;11.038;2023-05-16T05:26:31;11.80;99.90
30381;DHT22;17169;50.966;11.038;2023-05-16T05:29:33;11.80;99.90
30381;DHT22;17169;50.966;11.038;2023-05-16T05:32:37;11.80;99.90
30381;DHT22;17169;50.966;11.038;2023-05-16T05:35:39;11.80;99.90
30381;DHT22;17169;50.966;11.038;2023-05-16T05:38:42;11.70;99.90
30381;DHT22;17169;50.966;11.038;2023-05-16T05:41:44;11.70;99.90
30381;DHT22;17169;50.966;11.038;2023-05-16T05:44:46;11.80;99.90
30381;DHT22;17169;50.966;11.038;2023-05-16T05:47:50;11.80;99.90
30381;DHT22;17169;50.966;11.038;2023-05-16T05:50:52;11.80;99.90
30381;DHT22;17169;50.966;11.038;2023-05-16T05:53:55;11.80;99.90
30381;DHT22;17169;50.966;11.038;2023-05-16T05:56:57;11.90;99.90
30381;DHT22;17169;50.966;11.038;2023-05-16T05:59:59;11.80;99.90
30381;DHT22;17169;50.966;11.038;2023-05-16T06:03:03;11.70;99.90
30381;DHT22;17169;50.966;11.038;2023-05-16T06:06:06;11.80;99.90
30381;DHT22;17169;50.966;11.038;2023-05-16T06:09:09;11.80;99.90
30381;DHT22;17169;50.966;11.038;2023-05-16T06:12:11;11.70;99.90
30381;DHT22;17169;50.966;11.038;2023-05-16T06:15:13;11.70;99.90
30381;DHT22;17169;50.966;11.038;2023-05-16T06:18:17;11.70;99.90
30381;DHT22;17169;50.966;11.038;2023-05-16T06:21:19;11.70;99.90
30381;DHT22;17169;50.966;11.038;2023-05-16T06:24:22;11.70;99.90
30381;DHT22;17169;50.966;11.038;2023-05-16T06:27:24;11.80;99.90
30381;DHT22;17169;50.966;11.038;2023-05-16T06:30:27;11.80;99.90
30381;DHT22;17169;50.966;11.038;2023-05-16T06:33:30;11.70;99.90
30381;DHT22;17169;50.966;11.038;2023-05-16T06:36:33;11.80;99.90
30381;DHT22;17169;50.966;11.038;2023-05-16T06:39:35;11.90;99.90
30381;DHT22;17169;50.966;11.038;2023-05-16T06:42:37;11.80;99.90
30381;DHT22;17169;50.966;11.038;2023-05-16T06:45:40;11.80;99.90
30381;DHT22;17169;50.966;11.038;2023-05-16T06:48:43;11.90;99.90
30381;DHT22;17169;50.966;11.038;2023-05-16T06:51:46;11.90;99.90
30381;DHT22;17169;50.966;11.038;2023-05-16T06:54:48;11.90;99.90
30381;DHT22;17169;50.966;11.038;2023-05-16T06:57:50;11.90;99.90
30381;DHT22;17169;50.966;11.038;2023-05-16T07:00:53;12.00;99.90
30381;DHT22;17169;50.966;11.038;2023-05-16T07:03:56;12.10;99.90
30381;DHT22;17169;50.966;11.038;2023-05-16T07:06:59;12.30;99.90
30381;DHT22;17169;50.966;11.038;2023-05-16T07:10:01;12.20;99.90
30381;DHT22;17169;50.966;11.038;2023-05-16T07:13:04;12.20;99.90
30381;DHT22;17169;50.966;11.038;2023-05-16T07:16:06;12.20;99.90
30381;DHT22;17169;50.966;11.038;2023-05-16T07:19:10;12.30;99.90
30381;DHT22;17169;50.966;11.038;2023-05-16T07:22:12;12.30;99.90
30381;DHT22;17169;50.966;11.038;2023-05-16T07:25:15;12.20;99.90
30381;DHT22;17169;50.966;11.038;2023-05-16T07:28:17;12.30;99.90
30381;DHT22;17169;50.966;11.038;2023-05-16T07:31:20;12.40;99.90
30381;DHT22;17169;50.966;11.038;2023-05-16T07:34:25;12.50;99.90
30381;DHT22;17169;50.966;11.038;2023-05-16T07:37:27;12.60;99.90
30381;DHT22;17169;50.966;11.038;2023-05-16T07:40:29;12.60;99.90
30381;DHT22;17169;50.966;11.038;2023-05-16T07:43:32;12.60;99.90
30381;DHT22;17169;50.966;11.038;2023-05-16T07:46:36;12.60;99.90
30381;DHT22;17169;50.966;11.038;2023-05-16T07:49:40;12.70;99.90
30381;DHT22;17169;50.966;11.038;2023-05-16T07:52:42;12.80;99.90
30381;DHT22;17169;50.966;11.038;2023-05-16T07:55:45;12.80;99.90
30381;DHT22;17169;50.966;11.038;2023-05-16T07:58:47;12.90;99.90
30381;DHT22;17169;50.966;11.038;2023-05-16T08:01:50;12.90;99.90
30381;DHT22;17169;50.966;11.038;2023-05-16T08:04:54;13.00;99.90
30381;DHT22;17169;50.966;11.038;2023-05-16T08:07:56;13.00;99.90
30381;DHT22;17169;50.966;11.038;2023-05-16T08:10:59;13.00;99.90
30381;DHT22;17169;50.966;11.038;2023-05-16T08:14:02;13.10;99.90
30381;DHT22;17169;50.966;11.038;2023-05-16T08:17:04;13.20;99.90
30381;DHT22;17169;50.966;11.038;2023-05-16T08:20:09;13.30;99.90
30381;DHT22;17169;50.966;11.038;2023-05-16T08:23:12;13.40;99.90
30381;DHT22;17169;50.966;11.038;2023-05-16T08:26:15;13.50;99.90
30381;DHT22;17169;50.966;11.038;2023-05-16T08:29:18;13.70;99.90
30381;DHT22;17169;50.966;11.038;2023-05-16T08:32:21;13.90;99.90
30381;DHT22;17169;50.966;11.038;2023-05-16T08:35:24;14.00;99.90
30381;DHT22;17169;50.966;11.038;2023-05-16T08:38:27;14.10;99.90
30381;DHT22;17169;50.966;11.038;2023-05-16T08:41:29;14.30;99.90
30381;DHT22;17169;50.966;11.038;2023-05-16T08:44:33;14.60;99.90
30381;DHT22;17169;50.966;11.038;2023-05-16T08:47:38;14.80;99.80
30381;DHT22;17169;50.966;11.038;2023-05-16T08:50:43;15.10;99.20
30381;DHT22;17169;50.966;11.038;2023-05-16T08:53:51;15.40;98.50
30381;DHT22;17169;50.966;11.038;2023-05-16T08:56:54;15.50;97.90
30381;DHT22;17169;50.966;11.038;2023-05-16T08:59:57;15.20;97.50
30381;DHT22;17169;50.966;11.038;2023-05-16T09:03:00;15.00;98.00
30381;DHT22;17169;50.966;11.038;2023-05-16T09:06:05;15.00;98.40
30381;DHT22;17169;50.966;11.038;2023-05-16T09:09:08;14.80;98.10
30381;DHT22;17169;50.966;11.038;2023-05-16T09:12:12;14.60;98.50
30381;DHT22;17169;50.966;11.038;2023-05-16T09:15:17;14.50;98.60
30381;DHT22;17169;50.966;11.038;2023-05-16T09:18:21;14.30;98.90
30381;DHT22;17169;50.966;11.038;2023-05-16T09:21:26;14.20;98.80
30381;DHT22;17169;50.966;11.038;2023-05-16T09:24:29;14.10;98.80
30381;DHT22;17169;50.966;11.038;2023-05-16T09:27:32;14.00;99.30
30381;DHT22;17169;50.966;11.038;2023-05-16T09:30:34;14.20;99.20
30381;DHT22;17169;50.966;11.038;2023-05-16T09:33:41;14.30;98.40
30381;DHT22;17169;50.966;11.038;2023-05-16T09:36:44;14.30;98.80
30381;DHT22;17169;50.966;11.038;2023-05-16T09:39:48;14.40;98.70
30381;DHT22;17169;50.966;11.038;2023-05-16T09:43:01;14.60;98.70
30381;DHT22;17169;50.966;11.038;2023-05-16T09:46:04;14.50;98.70
30381;DHT22;17169;50.966;11.038;2023-05-16T09:49:10;14.30;99.00
30381;DHT22;17169;50.966;11.038;2023-05-16T09:52:15;14.20;99.30
30381;DHT22;17169;50.966;11.038;2023-05-16T09:55:18;13.90;99.60
30381;DHT22;17169;50.966;11.038;2023-05-16T09:58:20;13.80;99.80
30381;DHT22;17169;50.966;11.038;2023-05-16T10:01:29;13.70;99.90
30381;DHT22;17169;50.966;11.038;2023-05-16T10:04:32;13.70;99.90
30381;DHT22;17169;50.966;11.038;2023-05-16T10:07:37;13.90;99.90
30381;DHT22;17169;50.966;11.038;2023-05-16T10:10:41;14.00;99.40
30381;DHT22;17169;50.966;11.038;2023-05-16T10:13:44;14.20;99.30
30381;DHT22;17169;50.966;11.038;2023-05-16T10:16:50;14.30;99.20
30381;DHT22;17169;50.966;11.038;2023-05-16T10:19:53;14.10;99.30
30381;DHT22;17169;50.966;11.038;2023-05-16T10:22:58;14.00;99.10
30381;DHT22;17169;50.966;11.038;2023-05-16T10:26:03;14.00;99.50
30381;DHT22;17169;50.966;11.038;2023-05-16T10:29:06;14.00;99.30
30381;DHT22;17169;50.966;11.038;2023-05-16T10:32:09;14.00;99.20
30381;DHT22;17169;50.966;11.038;2023-05-16T10:35:13;14.10;99.50
30381;DHT22;17169;50.966;11.038;2023-05-16T10:38:17;14.30;99.10
30381;DHT22;17169;50.966;11.038;2023-05-16T10:41:20;14.50;98.50
30381;DHT22;17169;50.966;11.038;2023-05-16T10:44:22;14.50;98.20
30381;DHT22;17169;50.966;11.038;2023-05-16T10:47:25;14.80;98.40
30381;DHT22;17169;50.966;11.038;2023-05-16T10:50:35;15.10;97.70
30381;DHT22;17169;50.966;11.038;2023-05-16T10:53:39;15.00;97.10
30381;DHT22;17169;50.966;11.038;2023-05-16T10:56:41;15.00;96.40
30381;DHT22;17169;50.966;11.038;2023-05-16T10:59:45;15.10;96.20
30381;DHT22;17169;50.966;11.038;2023-05-16T11:02:47;15.20;95.80
30381;DHT22;17169;50.966;11.038;2023-05-16T11:05:51;15.30;95.40
30381;DHT22;17169;50.966;11.038;2023-05-16T11:09:17;15.30;95.60
30381;DHT22;17169;50.966;11.038;2023-05-16T11:12:22;14.90;95.00
30381;DHT22;17169;50.966;11.038;2023-05-16T11:15:26;15.00;94.70
30381;DHT22;17169;50.966;11.038;2023-05-16T11:18:31;14.90;94.40
30381;DHT22;17169;50.966;11.038;2023-05-16T11:22:05;15.10;94.50
30381;DHT22;17169;50.966;11.038;2023-05-16T11:25:09;15.30;92.60
30381;DHT22;17169;50.966;11.038;2023-05-16T11:28:12;15.30;91.80
30381;DHT22;17169;50.966;11.038;2023-05-16T11:31:17;15.40;92.00
30381;DHT22;17169;50.966;11.038;2023-05-16T11:34:19;15.80;92.90
30381;DHT22;17169;50.966;11.038;2023-05-16T11:37:22;16.00;91.90
30381;DHT22;17169;50.966;11.038;2023-05-16T11:40:26;16.40;92.20
30381;DHT22;17169;50.966;11.038;2023-05-16T11:43:28;16.60;92.10
30381;DHT22;17169;50.966;11.038;2023-05-16T11:46:32;16.80;91.80
30381;DHT22;17169;50.966;11.038;2023-05-16T11:49:35;16.60;90.60
30381;DHT22;17169;50.966;11.038;2023-05-16T11:52:38;16.60;90.30
30381;DHT22;17169;50.966;11.038;2023-05-16T11:55:41;16.50;90.90
30381;DHT22;17169;50.966;11.038;2023-05-16T11:58:45;16.40;90.60
30381;DHT22;17169;50.966;11.038;2023-05-16T12:01:47;16.30;90.60
30381;DHT22;17169;50.966;11.038;2023-05-16T12:04:50;16.50;90.70
30381;DHT22;17169;50.966;11.038;2023-05-16T12:07:53;17.00;90.90
30381;DHT22;17169;50.966;11.038;2023-05-16T12:10:57;16.80;89.90
30381;DHT22;17169;50.966;11.038;2023-05-16T12:13:59;16.90;88.40
30381;DHT22;17169;50.966;11.038;2023-05-16T12:17:02;17.30;88.30
30381;DHT22;17169;50.966;11.038;2023-05-16T12:20:07;17.60;84.30
30381;DHT22;17169;50.966;11.038;2023-05-16T12:23:13;17.80;86.80
30381;DHT22;17169;50.966;11.038;2023-05-16T12:26:24;17.80;84.60
30381;DHT22;17169;50.966;11.038;2023-05-16T12:29:30;18.00;84.30
30381;DHT22;17169;50.966;11.038;2023-05-16T12:32:35;17.90;82.90
30381;DHT22;17169;50.966;11.038;2023-05-16T12:35:39;18.00;85.90
30381;DHT22;17169;50.966;11.038;2023-05-16T12:38:45;18.40;84.90
30381;DHT22;17169;50.966;11.038;2023-05-16T12:41:49;19.10;82.10
30381;DHT22;17169;50.966;11.038;2023-05-16T12:44:55;19.30;81.00
30381;DHT22;17169;50.966;11.038;2023-05-16T12:48:03;19.20;78.90
30381;DHT22;17169;50.966;11.038;2023-05-16T12:51:13;19.40;80.20
30381;DHT22;17169;50.966;11.038;2023-05-16T12:54:15;19.90;77.50
30381;DHT22;17169;50.966;11.038;2023-05-16T12:57:19;20.00;76.60
30381;DHT22;17169;50.966;11.038;2023-05-16T13:00:21;19.40;76.00
30381;DHT22;17169;50.966;11.038;2023-05-16T13:03:24;19.50;75.30
30381;DHT22;17169;50.966;11.038;2023-05-16T13:06:27;19.30;75.10
30381;DHT22;17169;50.966;11.038;2023-05-16T13:09:29;18.80;74.30
30381;DHT22;17169;50.966;11.038;2023-05-16T13:12:34;18.60;75.10
30381;DHT22;17169;50.966;11.038;2023-05-16T13:15:36;18.60;76.20
30381;DHT22;17169;50.966;11.038;2023-05-16T13:18:38;18.70;74.60
30381;DHT22;17169;50.966;11.038;2023-05-16T13:21:41;18.70;75.40
30381;DHT22;17169;50.966;11.038;2023-05-16T13:24:43;18.80;73.00
30381;DHT22;17169;50.966;11.038;2023-05-16T13:27:47;18.90;72.90
30381;DHT22;17169;50.966;11.038;2023-05-16T13:30:49;19.20;72.30
30381;DHT22;17169;50.966;11.038;2023-05-16T13:33:52;19.30;71.10
30381;DHT22;17169;50.966;11.038;2023-05-16T13:36:54;19.40;70.90
30381;DHT22;17169;50.966;11.038;2023-05-16T13:39:56;19.90;70.10
30381;DHT22;17169;50.966;11.038;2023-05-16T13:43:00;21.10;68.70
30381;DHT22;17169;50.966;11.038;2023-05-16T13:46:03;22.70;68.00
30381;DHT22;17169;50.966;11.038;2023-05-16T13:49:05;24.60;62.50
30381;DHT22;17169;50.966;11.038;2023-05-16T13:52:08;26.00;62.70
30381;DHT22;17169;50.966;11.038;2023-05-16T13:55:10;27.20;55.70
30381;DHT22;17169;50.966;11.038;2023-05-16T13:58:14;28.00;54.70
30381;DHT22;17169;50.966;11.038;2023-05-16T14:01:18;28.50;50.80
30381;DHT22;17169;50.966;11.038;2023-05-16T14:04:21;29.60;50.70
30381;DHT22;17169;50.966;11.038;2023-05-16T14:07:23;30.40;45.50
30381;DHT22;17169;50.966;11.038;2023-05-16T14:10:25;29.60;45.00
30381;DHT22;17169;50.966;11.038;2023-05-16T14:13:29;29.40;45.30
30381;DHT22;17169;50.966;11.038;2023-05-16T14:16:31;29.40;45.60
30381;DHT22;17169;50.966;11.038;2023-05-16T14:19:34;29.90;44.30
30381;DHT22;17169;50.966;11.038;2023-05-16T14:22:37;30.90;44.60
30381;DHT22;17169;50.966;11.038;2023-05-16T14:25:39;31.60;43.20
30381;DHT22;17169;50.966;11.038;2023-05-16T14:28:43;32.40;42.10
30381;DHT22;17169;50.966;11.038;2023-05-16T14:31:45;32.80;40.80
30381;DHT22;17169;50.966;11.038;2023-05-16T14:34:48;32.90;40.40
30381;DHT22;17169;50.966;11.038;2023-05-16T14:37:50;31.10;40.00
30381;DHT22;17169;50.966;11.038;2023-05-16T14:40:52;31.40;42.20
30381;DHT22;17169;50.966;11.038;2023-05-16T14:43:56;31.70;40.70
30381;DHT22;17169;50.966;11.038;2023-05-16T14:46:58;32.50;41.30
30381;DHT22;17169;50.966;11.038;2023-05-16T14:50:01;33.60;40.10
30381;DHT22;17169;50.966;11.038;2023-05-16T14:53:03;33.60;39.30
30381;DHT22;17169;50.966;11.038;2023-05-16T14:56:06;35.10;40.10
30381;DHT22;17169;50.966;11.038;2023-05-16T14:59:09;36.30;37.60
30381;DHT22;17169;50.966;11.038;2023-05-16T15:02:12;37.30;36.10
30381;DHT22;17169;50.966;11.038;2023-05-16T15:05:15;37.90;36.50
30381;DHT22;17169;50.966;11.038;2023-05-16T15:08:17;39.00;35.70
30381;DHT22;17169;50.966;11.038;2023-05-16T15:11:19;37.70;33.20
30381;DHT22;17169;50.966;11.038;2023-05-16T15:14:24;36.80;35.40
30381;DHT22;17169;50.966;11.038;2023-05-16T15:17:27;36.40;33.80
30381;DHT22;17169;50.966;11.038;2023-05-16T15:20:29;36.20;34.60
30381;DHT22;17169;50.966;11.038;2023-05-16T15:23:31;36.50;34.80
30381;DHT22;17169;50.966;11.038;2023-05-16T15:26:34;36.00;34.40
30381;DHT22;17169;50.966;11.038;2023-05-16T15:29:38;35.10;34.00
30381;DHT22;17169;50.966;11.038;2023-05-16T15:32:40;33.10;34.70
30381;DHT22;17169;50.966;11.038;2023-05-16T15:35:42;32.20;36.30
30381;DHT22;17169;50.966;11.038;2023-05-16T15:38:45;32.70;36.30
30381;DHT22;17169;50.966;11.038;2023-05-16T15:41:47;31.10;35.70
30381;DHT22;17169;50.966;11.038;2023-05-16T15:44:51;29.60;36.60
30381;DHT22;17169;50.966;11.038;2023-05-16T15:47:53;30.40;37.80
30381;DHT22;17169;50.966;11.038;2023-05-16T15:50:56;32.80;37.20
30381;DHT22;17169;50.966;11.038;2023-05-16T15:53:58;34.60;36.20
30381;DHT22;17169;50.966;11.038;2023-05-16T15:57:01;35.10;35.50
30381;DHT22;17169;50.966;11.038;2023-05-16T16:00:06;35.00;34.70
30381;DHT22;17169;50.966;11.038;2023-05-16T16:03:08;35.70;36.40
30381;DHT22;17169;50.966;11.038;2023-05-16T16:06:11;37.50;36.10
30381;DHT22;17169;50.966;11.038;2023-05-16T16:09:13;38.30;35.00
30381;DHT22;17169;50.966;11.038;2023-05-16T16:12:16;39.50;34.60
30381;DHT22;17169;50.966;11.038;2023-05-16T16:15:19;39.70;33.70
30381;DHT22;17169;50.966;11.038;2023-05-16T16:18:22;38.70;32.90
30381;DHT22;17169;50.966;11.038;2023-05-16T16:21:24;37.70;33.60
30381;DHT22;17169;50.966;11.038;2023-05-16T16:24:26;36.70;33.80
30381;DHT22;17169;50.966;11.038;2023-05-16T16:27:29;36.50;33.80
30381;DHT22;17169;50.966;11.038;2023-05-16T16:30:32;36.20;33.70
30381;DHT22;17169;50.966;11.038;2023-05-16T16:33:35;35.00;33.40
30381;DHT22;17169;50.966;11.038;2023-05-16T16:36:37;33.90;34.00
30381;DHT22;17169;50.966;11.038;2023-05-16T16:39:40;32.00;34.00
30381;DHT22;17169;50.966;11.038;2023-05-16T16:42:42;30.20;36.10
30381;DHT22;17169;50.966;11.038;2023-05-16T16:45:46;28.60;36.60
30381;DHT22;17169;50.966;11.038;2023-05-16T16:48:48;27.40;37.10
30381;DHT22;17169;50.966;11.038;2023-05-16T16:51:52;25.90;38.30
30381;DHT22;17169;50.966;11.038;2023-05-16T16:54:54;24.40;39.50
30381;DHT22;17169;50.966;11.038;2023-05-16T16:57:56;23.50;40.70
30381;DHT22;17169;50.966;11.038;2023-05-16T17:01:00;22.90;42.40
30381;DHT22;17169;50.966;11.038;2023-05-16T17:04:04;22.50;42.40
30381;DHT22;17169;50.966;11.038;2023-05-16T17:07:06;22.20;43.20
30381;DHT22;17169;50.966;11.038;2023-05-16T17:10:09;21.70;43.80
30381;DHT22;17169;50.966;11.038;2023-05-16T17:13:11;21.20;44.60
30381;DHT22;17169;50.966;11.038;2023-05-16T17:16:27;20.60;44.90
30381;DHT22;17169;50.966;11.038;2023-05-16T17:19:34;20.20;45.80
30381;DHT22;17169;50.966;11.038;2023-05-16T17:22:37;19.80;45.70
30381;DHT22;17169;50.966;11.038;2023-05-16T17:25:39;19.30;46.50
30381;DHT22;17169;50.966;11.038;2023-05-16T17:28:43;19.20;46.80
30381;DHT22;17169;50.966;11.038;2023-05-16T17:31:46;19.00;47.90
30381;DHT22;17169;50.966;11.038;2023-05-16T17:34:49;18.70;47.60
30381;DHT22;17169;50.966;11.038;2023-05-16T17:37:53;18.20;48.20
30381;DHT22;17169;50.966;11.038;2023-05-16T17:40:55;18.10;49.00
30381;DHT22;17169;50.966;11.038;2023-05-16T17:43:57;18.00;49.20
30381;DHT22;17169;50.966;11.038;2023-05-16T17:47:01;18.00;50.20
30381;DHT22;17169;50.966;11.038;2023-05-16T17:50:05;17.80;51.20
30381;DHT22;17169;50.966;11.038;2023-05-16T17:53:07;17.70;51.70
30381;DHT22;17169;50.966;11.038;2023-05-16T17:56:10;17.30;52.60
30381;DHT22;17169;50.966;11.038;2023-05-16T17:59:12;17.10;53.20
30381;DHT22;17169;50.966;11.038;2023-05-16T18:02:16;16.90;53.80
30381;DHT22;17169;50.966;11.038;2023-05-16T18:05:18;16.60;55.10
30381;DHT22;17169;50.966;11.038;2023-05-16T18:08:21;16.30;55.00
30381;DHT22;17169;50.966;11.038;2023-05-16T18:11:24;16.10;55.70
30381;DHT22;17169;50.966;11.038;2023-05-16T18:14:26;15.90;56.20
30381;DHT22;17169;50.966;11.038;2023-05-16T18:17:30;15.60;57.00
30381;DHT22;17169;50.966;11.038;2023-05-16T18:20:33;15.50;57.20
30381;DHT22;17169;50.966;11.038;2023-05-16T18:23:35;15.40;57.40
30381;DHT22;17169;50.966;11.038;2023-05-16T18:26:38;15.30;57.90
30381;DHT22;17169;50.966;11.038;2023-05-16T18:29:41;15.20;57.60
30381;DHT22;17169;50.966;11.038;2023-05-16T18:32:46;15.00;57.80
30381;DHT22;17169;50.966;11.038;2023-05-16T18:35:48;14.90;58.60
30381;DHT22;17169;50.966;11.038;2023-05-16T18:38:50;14.80;58.70
30381;DHT22;17169;50.966;11.038;2023-05-16T18:41:53;14.70;59.40
30381;DHT22;17169;50.966;11.038;2023-05-16T18:44:56;14.60;59.80
30381;DHT22;17169;50.966;11.038;2023-05-16T18:47:59;14.50;60.20
30381;DHT22;17169;50.966;11.038;2023-05-16T18:51:02;14.50;60.50
30381;DHT22;17169;50.966;11.038;2023-05-16T18:54:04;14.40;61.20
30381;DHT22;17169;50.966;11.038;2023-05-16T18:57:07;14.30;61.50
30381;DHT22;17169;50.966;11.038;2023-05-16T19:00:10;14.20;61.40